Airfield :
LOGIN :

Register | Disclaimer

   EN    FR    IT 

 










Legend :    VFR   Marginal VFR   IFR   Intensive IFR   Very Intensive IFR
Visi :
Ceiling :
>= 8 km
>= 3000ft
5 to 8 km
1000 to 3000 ft
1500m to 5 km
500 to 1000 ft
800 to 1500m
200 to 500 ft
< 800m
< 200 ft
Symbols :   Thunderstorms  Fog  Heavy snow  Heavy precipitations  Wind > 20 kt
SIGMETs :     Misc.  Thunderstorms  Icing  Turbulence  Mountain Waves  Volcanic Ashes






- Airport Elevation : 247 ft
- IATA code : BLL


EKBI - Billund

CURRENT METAR :
  • 260120Z 09007KT CAVOK 17/16 Q1011

EXPIRED METARs :
  • 260050Z 09007KT 9999 FEW075 SCT110 17/16 Q1011
  • 260020Z 09004KT 9999 FEW025CB BKN067 17/16 Q1012 RETS
  • 252350Z 34008KT 9999 -TSRA SCT025CB BKN067 18/16 Q1012
  • 252320Z 10012KT 9999 -TSRA SCT050CB BKN120 18/16 Q1012
  • 252250Z 09008KT 9999 FEW066CB SCT110 BKN250 17/16 Q1012

TAF TAF EKBI
Valid from the 26 at 00:00 until the 27 at 00:00 UTC


252314Z 2600/2624 09008KT CAVOK
TEMPO 2600/2603 SHRA BKN040CB
TEMPO 2603/2608 SCT040CB
TEMPO 2608/2621 4000 SHRA BKN040CB
PROB40
TEMPO 2610/2619 TSRA
TEMPO 2622/2624 3000 BR



MET'MAP, your aeronautical weather chart ! - Copyright ORBIFLY December 2007 - Disclaimer

ORBIFLY MET'MAP TEAM :

Programming & Development : Alexandra Zaïnal
Concept & original design : Baudouin d'Aumeries
Assistance for programming : Marc-Olivier Méhu
Technical & hardware support : Manuel Goepfert

Contact : metmap@orbifly.com




SOURCES & CREDITS :

   NOAA